createdAt,value
2018-12-30T00:00:04.781Z,981.26
2018-12-30T00:01:05.166Z,981.40
2018-12-30T00:02:04.766Z,981.20
2018-12-30T00:03:05.874Z,981.31
2018-12-30T00:04:05.415Z,981.40
2018-12-30T00:05:05.160Z,981.32
2018-12-30T00:06:04.853Z,981.48
2018-12-30T00:07:05.097Z,981.43
2018-12-30T00:08:04.564Z,981.48
2018-12-30T00:09:05.252Z,981.31
2018-12-30T00:10:04.780Z,981.34
2018-12-30T00:11:05.473Z,981.34
2018-12-30T00:12:04.750Z,981.26
2018-12-30T00:13:05.110Z,981.23
2018-12-30T00:14:04.568Z,981.29
2018-12-30T00:15:04.622Z,981.29
2018-12-30T00:16:04.837Z,981.17
2018-12-30T00:17:05.374Z,981.29
2018-12-30T00:18:05.769Z,981.26
2018-12-30T00:19:05.280Z,981.20
2018-12-30T00:20:04.702Z,981.34
2018-12-30T00:21:09.443Z,981.23
2018-12-30T00:22:05.083Z,981.20
2018-12-30T00:23:04.838Z,981.34
2018-12-30T00:24:05.298Z,981.34
2018-12-30T00:25:04.840Z,981.20
2018-12-30T00:26:04.739Z,981.06
2018-12-30T00:27:05.275Z,981.17
2018-12-30T00:28:05.388Z,981.26
2018-12-30T00:29:10.558Z,981.20
2018-12-30T00:30:05.002Z,981.31
2018-12-30T00:31:04.964Z,981.29
2018-12-30T00:32:05.318Z,981.31
2018-12-30T00:33:05.297Z,981.29
2018-12-30T00:34:04.585Z,981.31
2018-12-30T00:35:04.691Z,981.20
2018-12-30T00:36:05.340Z,981.20
2018-12-30T00:37:05.394Z,981.29
2018-12-30T00:38:04.800Z,981.40
2018-12-30T00:39:05.264Z,981.34
2018-12-30T00:40:04.724Z,981.23
2018-12-30T00:41:05.401Z,981.15
2018-12-30T00:42:05.375Z,981.26
2018-12-30T00:43:04.928Z,981.20
2018-12-30T00:44:04.917Z,981.23
2018-12-30T00:45:05.239Z,981.23
2018-12-30T00:46:05.207Z,981.29
2018-12-30T00:47:05.346Z,981.20
2018-12-30T00:48:05.963Z,981.34
2018-12-30T00:49:10.173Z,981.34
2018-12-30T00:50:05.332Z,981.26
2018-12-30T00:51:05.431Z,981.23
2018-12-30T00:52:04.557Z,981.31
2018-12-30T00:53:05.213Z,981.26
2018-12-30T00:54:05.365Z,981.23
2018-12-30T00:55:04.704Z,981.14
2018-12-30T00:56:05.417Z,981.09
2018-12-30T00:57:04.666Z,981.17
2018-12-30T00:58:04.802Z,981.23
2018-12-30T00:59:04.806Z,981.20
2018-12-30T01:00:04.997Z,981.06
2018-12-30T01:01:05.141Z,981.34
2018-12-30T01:02:05.363Z,981.17
2018-12-30T01:03:04.492Z,981.23
2018-12-30T01:04:05.114Z,981.17
2018-12-30T01:05:04.826Z,981.17
2018-12-30T01:06:05.335Z,981.25
2018-12-30T01:07:04.974Z,981.17
2018-12-30T01:08:04.524Z,981.17
2018-12-30T01:09:04.717Z,981.20
2018-12-30T01:10:05.032Z,981.17
2018-12-30T01:11:05.560Z,981.17
2018-12-30T01:12:04.999Z,981.06
2018-12-30T01:13:05.384Z,981.31
2018-12-30T01:14:04.540Z,981.22
2018-12-30T01:15:04.596Z,981.22
2018-12-30T01:16:04.946Z,981.34
2018-12-30T01:17:05.039Z,981.39
2018-12-30T01:18:05.102Z,981.28
2018-12-30T01:19:05.087Z,981.31
2018-12-30T01:20:05.228Z,981.11
2018-12-30T01:21:05.376Z,981.33
2018-12-30T01:22:04.665Z,981.36
2018-12-30T01:23:05.152Z,981.28
2018-12-30T01:24:04.749Z,981.45
2018-12-30T01:25:04.736Z,981.39
2018-12-30T01:26:04.745Z,981.33
2018-12-30T01:27:05.487Z,981.42
2018-12-30T01:28:04.954Z,981.36
2018-12-30T01:29:05.384Z,981.30
2018-12-30T01:30:04.882Z,981.44
2018-12-30T01:31:05.128Z,981.47
2018-12-30T01:32:05.145Z,981.30
2018-12-30T01:33:04.776Z,981.28
2018-12-30T01:34:04.982Z,981.19
2018-12-30T01:35:05.292Z,981.44
2018-12-30T01:36:05.288Z,981.25
2018-12-30T01:37:05.693Z,981.44
2018-12-30T01:38:05.571Z,981.47
2018-12-30T01:39:04.578Z,981.33
2018-12-30T01:40:04.836Z,981.41
2018-12-30T01:41:10.198Z,981.53
2018-12-30T01:42:04.575Z,981.50
2018-12-30T01:43:05.219Z,981.41
2018-12-30T01:44:05.333Z,981.47
2018-12-30T01:45:04.818Z,981.47
2018-12-30T01:46:05.611Z,981.47
2018-12-30T01:47:05.146Z,981.47
2018-12-30T01:48:05.179Z,981.47
2018-12-30T01:49:04.477Z,981.50
2018-12-30T01:50:05.126Z,981.41
2018-12-30T01:51:05.086Z,981.41
2018-12-30T01:52:04.652Z,981.30
2018-12-30T01:53:04.771Z,981.41
2018-12-30T01:54:05.091Z,981.41
2018-12-30T01:55:05.096Z,981.41
2018-12-30T01:56:05.315Z,981.41
2018-12-30T01:57:05.467Z,981.41
2018-12-30T01:58:05.292Z,981.41
2018-12-30T01:59:04.542Z,981.41
2018-12-30T02:00:05.206Z,981.38
2018-12-30T02:01:10.294Z,981.30
2018-12-30T02:02:04.777Z,981.35
2018-12-30T02:03:05.198Z,981.38
2018-12-30T02:04:04.550Z,981.44
2018-12-30T02:05:04.724Z,981.44
2018-12-30T02:06:05.418Z,981.38
2018-12-30T02:07:04.770Z,981.38
2018-12-30T02:08:04.989Z,981.38
2018-12-30T02:09:04.701Z,981.46
2018-12-30T02:10:05.069Z,981.27
2018-12-30T02:11:05.465Z,981.46
2018-12-30T02:12:04.663Z,981.41
2018-12-30T02:13:04.922Z,981.44
2018-12-30T02:14:04.886Z,981.44
2018-12-30T02:15:05.338Z,981.41
2018-12-30T02:16:04.868Z,981.41
2018-12-30T02:17:05.212Z,981.29
2018-12-30T02:18:05.298Z,981.49
2018-12-30T02:19:04.675Z,981.46
2018-12-30T02:20:05.165Z,981.52
2018-12-30T02:21:05.232Z,981.49
2018-12-30T02:22:05.367Z,981.46
2018-12-30T02:23:04.881Z,981.46
2018-12-30T02:24:05.335Z,981.46
2018-12-30T02:25:04.927Z,981.49
2018-12-30T02:26:04.769Z,981.26
2018-12-30T02:27:04.719Z,981.56
2018-12-30T02:28:04.730Z,981.49
2018-12-30T02:29:09.770Z,981.56
2018-12-30T02:30:05.159Z,981.54
2018-12-30T02:31:05.393Z,981.40
2018-12-30T02:32:05.050Z,981.43
2018-12-30T02:33:04.670Z,981.51
2018-12-30T02:34:04.820Z,981.37
2018-12-30T02:35:05.270Z,981.37
2018-12-30T02:36:05.466Z,981.48
2018-12-30T02:37:04.771Z,981.48
2018-12-30T02:38:05.179Z,981.48
2018-12-30T02:39:04.609Z,981.42
2018-12-30T02:40:05.018Z,981.54
2018-12-30T02:41:05.228Z,981.56
2018-12-30T02:42:05.387Z,981.51
2018-12-30T02:43:04.706Z,981.40
2018-12-30T02:44:04.738Z,981.42
2018-12-30T02:45:05.086Z,981.31
2018-12-30T02:46:04.740Z,981.48
2018-12-30T02:47:05.158Z,981.39
2018-12-30T02:48:04.515Z,981.42
2018-12-30T02:49:04.651Z,981.45
2018-12-30T02:50:04.921Z,981.45
2018-12-30T02:51:04.793Z,981.28
2018-12-30T02:52:05.423Z,981.45
2018-12-30T02:53:05.321Z,981.58
2018-12-30T02:54:04.950Z,981.42
2018-12-30T02:55:05.419Z,981.42
2018-12-30T02:56:04.800Z,981.45
2018-12-30T02:57:05.384Z,981.39
2018-12-30T02:58:05.494Z,981.36
2018-12-30T02:59:04.977Z,981.50
2018-12-30T03:00:05.146Z,981.53
2018-12-30T03:01:04.622Z,981.47
2018-12-30T03:02:04.642Z,981.50
2018-12-30T03:03:05.237Z,981.47
2018-12-30T03:04:04.670Z,981.55
2018-12-30T03:05:05.071Z,981.60
2018-12-30T03:06:04.646Z,981.53
2018-12-30T03:07:04.546Z,981.38
2018-12-30T03:08:05.183Z,981.52
2018-12-30T03:09:04.625Z,981.50
2018-12-30T03:10:04.852Z,981.36
2018-12-30T03:11:04.930Z,981.41
2018-12-30T03:12:05.214Z,981.57
2018-12-30T03:13:05.149Z,981.50
2018-12-30T03:14:05.842Z,981.55
2018-12-30T03:15:05.366Z,981.44
2018-12-30T03:16:05.571Z,981.55
2018-12-30T03:17:05.063Z,981.57
2018-12-30T03:18:05.407Z,981.52
2018-12-30T03:19:05.209Z,981.35
2018-12-30T03:20:05.351Z,981.60
2018-12-30T03:21:05.457Z,981.55
2018-12-30T03:22:05.429Z,981.38
2018-12-30T03:23:04.826Z,981.46
2018-12-30T03:24:05.086Z,981.46
2018-12-30T03:25:04.785Z,981.46
2018-12-30T03:26:05.106Z,981.52
2018-12-30T03:27:04.556Z,981.52
2018-12-30T03:28:07.102Z,981.35
2018-12-30T03:29:10.333Z,981.38
2018-12-30T03:30:04.880Z,981.43
2018-12-30T03:31:05.056Z,981.59
2018-12-30T03:32:05.201Z,981.43
2018-12-30T03:33:05.244Z,981.49
2018-12-30T03:34:04.575Z,981.43
2018-12-30T03:35:04.595Z,981.62
2018-12-30T03:36:05.050Z,981.55
2018-12-30T03:37:05.869Z,981.49
2018-12-30T03:38:05.052Z,981.54
2018-12-30T03:39:05.165Z,981.56
2018-12-30T03:40:04.755Z,981.49
2018-12-30T03:41:04.727Z,981.43
2018-12-30T03:42:05.367Z,981.73
2018-12-30T03:43:05.386Z,981.62
2018-12-30T03:44:04.473Z,981.59
2018-12-30T03:45:05.147Z,981.79
2018-12-30T03:46:05.123Z,981.67
2018-12-30T03:47:04.832Z,981.56
2018-12-30T03:48:05.367Z,981.73
2018-12-30T03:49:10.489Z,981.56
2018-12-30T03:50:04.990Z,981.64
2018-12-30T03:51:05.505Z,981.64
2018-12-30T03:52:08.996Z,981.67
2018-12-30T03:53:04.572Z,981.56
2018-12-30T03:54:04.623Z,981.84
2018-12-30T03:55:04.965Z,981.75
2018-12-30T03:56:05.387Z,981.78
2018-12-30T03:57:05.198Z,981.72
2018-12-30T03:58:04.579Z,981.56
2018-12-30T03:59:05.202Z,981.84
2018-12-30T04:00:05.402Z,981.86
2018-12-30T04:01:05.184Z,981.72
2018-12-30T04:02:05.346Z,981.86
2018-12-30T04:03:04.869Z,982.00
2018-12-30T04:04:05.078Z,981.83
2018-12-30T04:05:05.224Z,981.86
2018-12-30T04:06:05.323Z,982.03
2018-12-30T04:07:05.357Z,981.86
2018-12-30T04:08:05.062Z,981.78
2018-12-30T04:09:05.181Z,981.81
2018-12-30T04:10:05.338Z,981.72
2018-12-30T04:11:04.618Z,981.97
2018-12-30T04:12:05.114Z,981.83
2018-12-30T04:13:05.116Z,981.94
2018-12-30T04:14:05.326Z,981.92
2018-12-30T04:15:04.696Z,981.89
2018-12-30T04:16:05.199Z,981.94
2018-12-30T04:17:05.665Z,982.08
2018-12-30T04:18:04.617Z,981.94
2018-12-30T04:19:04.838Z,981.97
2018-12-30T04:20:05.315Z,981.80
2018-12-30T04:21:04.826Z,981.89
2018-12-30T04:22:04.956Z,981.86
2018-12-30T04:23:05.068Z,982.03
2018-12-30T04:24:05.283Z,982.05
2018-12-30T04:25:04.983Z,982.00
2018-12-30T04:26:05.041Z,982.11
2018-12-30T04:27:05.068Z,982.17
2018-12-30T04:28:05.331Z,982.08
2018-12-30T04:29:05.488Z,982.05
2018-12-30T04:30:05.613Z,982.14
2018-12-30T04:31:04.848Z,982.14
2018-12-30T04:32:04.836Z,982.28
2018-12-30T04:33:04.694Z,982.19
2018-12-30T04:34:05.251Z,982.08
2018-12-30T04:35:04.526Z,982.16
2018-12-30T04:36:04.722Z,982.28
2018-12-30T04:37:04.577Z,982.42
2018-12-30T04:38:04.727Z,982.30
2018-12-30T04:39:05.154Z,982.33
2018-12-30T04:40:05.276Z,982.33
2018-12-30T04:41:04.719Z,982.39
2018-12-30T04:42:04.785Z,982.33
2018-12-30T04:43:04.890Z,982.41
2018-12-30T04:44:04.837Z,982.41
2018-12-30T04:45:04.989Z,982.24
2018-12-30T04:46:05.567Z,982.30
2018-12-30T04:47:05.010Z,982.53
2018-12-30T04:48:05.370Z,982.39
2018-12-30T04:49:10.447Z,982.41
2018-12-30T04:50:04.825Z,982.47
2018-12-30T04:51:05.566Z,982.47
2018-12-30T04:52:04.846Z,982.61
2018-12-30T04:53:04.868Z,982.58
2018-12-30T04:54:05.572Z,982.38
2018-12-30T04:55:05.459Z,982.55
2018-12-30T04:56:04.600Z,982.58
2018-12-30T04:57:04.639Z,982.64
2018-12-30T04:58:04.756Z,982.72
2018-12-30T04:59:04.983Z,982.80
2018-12-30T05:00:05.185Z,982.83
2018-12-30T05:01:05.120Z,982.72
2018-12-30T05:02:05.039Z,982.67
2018-12-30T05:03:05.265Z,982.69
2018-12-30T05:04:05.773Z,982.83
2018-12-30T05:05:05.475Z,982.75
2018-12-30T05:06:04.585Z,982.85
2018-12-30T05:07:04.992Z,982.94
2018-12-30T05:08:05.227Z,982.83
2018-12-30T05:09:05.558Z,982.94
2018-12-30T05:10:04.475Z,982.94
2018-12-30T05:11:05.029Z,982.94
2018-12-30T05:12:05.050Z,982.88
2018-12-30T05:13:05.508Z,983.11
2018-12-30T05:14:04.670Z,983.08
2018-12-30T05:15:05.117Z,983.05
2018-12-30T05:16:05.315Z,983.00
2018-12-30T05:17:05.516Z,983.11
2018-12-30T05:18:05.100Z,983.08
2018-12-30T05:19:04.627Z,983.25
2018-12-30T05:20:05.083Z,983.14
2018-12-30T05:21:05.212Z,983.08
2018-12-30T05:22:04.695Z,983.03
2018-12-30T05:23:05.194Z,983.20
2018-12-30T05:24:05.201Z,983.25
2018-12-30T05:25:05.858Z,983.28
2018-12-30T05:26:05.204Z,983.38
2018-12-30T05:27:05.217Z,983.41
2018-12-30T05:28:04.662Z,983.41
2018-12-30T05:29:10.152Z,983.44
2018-12-30T05:30:04.535Z,983.50
2018-12-30T05:31:04.607Z,983.44
2018-12-30T05:32:04.652Z,983.31
2018-12-30T05:33:04.928Z,983.36
2018-12-30T05:34:05.066Z,983.36
2018-12-30T05:35:05.374Z,983.55
2018-12-30T05:36:05.455Z,983.53
2018-12-30T05:37:04.589Z,983.55
2018-12-30T05:38:04.702Z,983.67
2018-12-30T05:39:04.810Z,983.61
2018-12-30T05:40:04.927Z,983.61
2018-12-30T05:41:04.565Z,983.64
2018-12-30T05:42:04.822Z,983.56
2018-12-30T05:43:05.089Z,983.61
2018-12-30T05:44:05.186Z,983.81
2018-12-30T05:45:05.099Z,983.75
2018-12-30T05:46:04.728Z,983.81
2018-12-30T05:47:06.253Z,983.98
2018-12-30T05:48:05.492Z,983.78
2018-12-30T05:49:05.064Z,983.84
2018-12-30T05:50:05.408Z,983.95
2018-12-30T05:51:04.478Z,983.81
2018-12-30T05:52:04.581Z,984.01
2018-12-30T05:53:04.680Z,983.95
2018-12-30T05:54:04.799Z,983.89
2018-12-30T05:55:05.302Z,984.09
2018-12-30T05:56:04.846Z,984.15
2018-12-30T05:57:04.784Z,984.15
2018-12-30T05:58:04.997Z,984.20
2018-12-30T05:59:05.314Z,984.26
2018-12-30T06:00:04.835Z,984.12
2018-12-30T06:01:05.064Z,984.18
2018-12-30T06:02:04.698Z,984.09
2018-12-30T06:03:05.087Z,984.06
2018-12-30T06:04:05.424Z,984.29
2018-12-30T06:05:04.818Z,984.29
2018-12-30T06:06:04.839Z,984.38
2018-12-30T06:07:04.915Z,984.32
2018-12-30T06:08:05.024Z,984.29
2018-12-30T06:09:05.085Z,984.63
2018-12-30T06:10:04.730Z,984.54
2018-12-30T06:11:05.069Z,984.57
2018-12-30T06:12:04.669Z,984.60
2018-12-30T06:13:04.742Z,984.57
2018-12-30T06:14:04.785Z,984.63
2018-12-30T06:15:05.019Z,984.52
2018-12-30T06:16:04.660Z,984.46
2018-12-30T06:17:05.242Z,984.66
2018-12-30T06:18:05.445Z,984.60
2018-12-30T06:19:05.237Z,984.60
2018-12-30T06:20:04.467Z,984.69
2018-12-30T06:21:04.494Z,984.52
2018-12-30T06:22:04.697Z,984.72
2018-12-30T06:23:05.061Z,984.72
2018-12-30T06:24:05.318Z,984.77
2018-12-30T06:25:05.518Z,984.77
2018-12-30T06:26:05.390Z,984.72
2018-12-30T06:27:05.384Z,984.77
2018-12-30T06:28:04.690Z,984.63
2018-12-30T06:29:09.811Z,984.82
2018-12-30T06:30:05.342Z,984.75
2018-12-30T06:31:05.251Z,984.88
2018-12-30T06:32:04.504Z,984.88
2018-12-30T06:33:04.766Z,985.02
2018-12-30T06:34:05.320Z,984.96
2018-12-30T06:35:05.464Z,984.96
2018-12-30T06:36:04.640Z,984.99
2018-12-30T06:37:05.244Z,984.96
2018-12-30T06:38:04.611Z,985.02
2018-12-30T06:39:05.144Z,985.08
2018-12-30T06:40:11.742Z,985.05
2018-12-30T06:41:05.409Z,985.19
2018-12-30T06:42:05.421Z,985.19
2018-12-30T06:43:05.548Z,985.05
2018-12-30T06:44:04.875Z,985.08
2018-12-30T06:45:05.128Z,985.13
2018-12-30T06:46:04.534Z,985.19
2018-12-30T06:47:04.606Z,985.19
2018-12-30T06:48:05.033Z,985.35
2018-12-30T06:49:11.077Z,985.43
2018-12-30T06:50:04.493Z,985.25
2018-12-30T06:51:04.632Z,985.27
2018-12-30T06:52:04.703Z,985.44
2018-12-30T06:53:04.694Z,985.49
2018-12-30T06:54:05.236Z,985.44
2018-12-30T06:55:05.298Z,985.55
2018-12-30T06:56:04.837Z,985.49
2018-12-30T06:57:05.251Z,985.30
2018-12-30T06:58:04.656Z,985.75
2018-12-30T06:59:05.167Z,985.58
2018-12-30T07:00:05.410Z,985.75
2018-12-30T07:01:05.487Z,985.58
2018-12-30T07:02:04.533Z,985.49
2018-12-30T07:03:05.050Z,985.64
2018-12-30T07:04:05.168Z,985.86
2018-12-30T07:05:05.297Z,985.58
2018-12-30T07:06:04.583Z,985.75
2018-12-30T07:07:04.674Z,985.92
2018-12-30T07:08:05.007Z,985.95
2018-12-30T07:09:05.119Z,985.86
2018-12-30T07:10:05.232Z,985.86
2018-12-30T07:11:05.261Z,985.97
2018-12-30T07:12:05.421Z,985.83
2018-12-30T07:13:04.621Z,985.89
2018-12-30T07:14:04.745Z,985.89
2018-12-30T07:15:04.800Z,985.92
2018-12-30T07:16:04.846Z,985.97
2018-12-30T07:17:04.892Z,985.95
2018-12-30T07:18:05.060Z,986.09
2018-12-30T07:19:05.098Z,986.09
2018-12-30T07:20:05.471Z,986.03
2018-12-30T07:21:05.547Z,986.03
2018-12-30T07:22:04.635Z,986.09
2018-12-30T07:23:06.533Z,985.98
2018-12-30T07:24:05.069Z,985.97
2018-12-30T07:25:05.148Z,985.86
2018-12-30T07:26:05.475Z,986.09
2018-12-30T07:27:05.414Z,986.06
2018-12-30T07:28:05.134Z,986.12
2018-12-30T07:29:09.674Z,986.20
2018-12-30T07:30:05.153Z,986.14
2018-12-30T07:31:05.352Z,986.14
2018-12-30T07:32:05.109Z,986.12
2018-12-30T07:33:04.660Z,986.14
2018-12-30T07:34:04.739Z,986.14
2018-12-30T07:35:05.310Z,986.34
2018-12-30T07:36:04.705Z,986.23
2018-12-30T07:37:04.997Z,986.31
2018-12-30T07:38:05.383Z,986.23
2018-12-30T07:39:05.436Z,986.34
2018-12-30T07:40:05.181Z,986.29
2018-12-30T07:41:04.600Z,986.26
2018-12-30T07:42:04.847Z,986.37
2018-12-30T07:43:04.844Z,986.34
2018-12-30T07:44:04.818Z,986.34
2018-12-30T07:45:05.070Z,986.43
2018-12-30T07:46:05.223Z,986.48
2018-12-30T07:47:05.340Z,986.43
2018-12-30T07:48:04.761Z,986.43
2018-12-30T07:49:10.219Z,986.43
2018-12-30T07:50:04.617Z,986.37
2018-12-30T07:51:05.210Z,986.48
2018-12-30T07:52:05.358Z,986.58
2018-12-30T07:53:05.110Z,986.43
2018-12-30T07:54:05.241Z,986.45
2018-12-30T07:55:05.466Z,986.58
2018-12-30T07:56:05.523Z,986.58
2018-12-30T07:57:04.858Z,986.37
2018-12-30T07:58:04.530Z,986.58
2018-12-30T07:59:04.834Z,986.54
2018-12-30T08:00:05.365Z,986.51
2018-12-30T08:01:05.468Z,986.43
2018-12-30T08:02:04.684Z,986.56
2018-12-30T08:03:05.214Z,986.48
2018-12-30T08:04:05.132Z,986.45
2018-12-30T08:05:05.311Z,986.64
2018-12-30T08:06:04.699Z,986.54
2018-12-30T08:07:04.837Z,986.56
2018-12-30T08:08:05.389Z,986.58
2018-12-30T08:09:05.289Z,986.54
2018-12-30T08:10:04.906Z,986.56
2018-12-30T08:11:05.044Z,986.75
2018-12-30T08:12:05.044Z,986.75
2018-12-30T08:13:04.582Z,986.56
2018-12-30T08:14:05.017Z,986.54
2018-12-30T08:17:05.715Z,986.58
2018-12-30T08:18:05.449Z,986.67
2018-12-30T08:19:05.033Z,986.70
2018-12-30T08:20:05.051Z,986.75
2018-12-30T08:21:05.208Z,986.87
2018-12-30T08:22:05.361Z,986.78
2018-12-30T08:23:04.742Z,986.92
2018-12-30T08:24:05.136Z,986.95
2018-12-30T08:25:04.787Z,986.92
2018-12-30T08:26:05.041Z,986.84
2018-12-30T08:27:05.265Z,987.03
2018-12-30T08:28:05.286Z,986.89
2018-12-30T08:29:05.384Z,987.01
2018-12-30T08:30:04.887Z,987.09
2018-12-30T08:31:05.332Z,987.03
2018-12-30T08:32:04.694Z,987.03
2018-12-30T08:33:04.665Z,987.06
2018-12-30T08:34:05.285Z,987.17
2018-12-30T08:35:05.437Z,987.17
2018-12-30T08:36:05.486Z,987.17
2018-12-30T08:37:10.110Z,987.17
2018-12-30T08:38:04.518Z,987.15
2018-12-30T08:39:05.079Z,987.23
2018-12-30T08:40:05.384Z,987.20
2018-12-30T08:41:04.686Z,987.17
2018-12-30T08:42:04.758Z,987.23
2018-12-30T08:43:04.917Z,987.20
2018-12-30T08:44:05.162Z,987.23
2018-12-30T08:45:05.259Z,987.23
2018-12-30T08:46:05.496Z,987.23
2018-12-30T08:47:04.947Z,987.15
2018-12-30T08:48:05.416Z,987.12
2018-12-30T08:49:04.831Z,987.23
2018-12-30T08:50:05.180Z,987.34
2018-12-30T08:51:05.406Z,987.23
2018-12-30T08:52:04.775Z,987.17
2018-12-30T08:53:05.401Z,987.20
2018-12-30T08:54:05.468Z,987.40
2018-12-30T08:55:05.475Z,987.40
2018-12-30T08:56:05.197Z,987.34
2018-12-30T08:57:10.277Z,987.34
2018-12-30T08:58:04.765Z,987.26
2018-12-30T08:59:04.853Z,987.40
2018-12-30T09:00:04.968Z,987.40
2018-12-30T09:01:04.653Z,987.54
2018-12-30T09:03:05.364Z,987.34
2018-12-30T09:04:05.299Z,987.48
2018-12-30T09:05:04.807Z,987.45
2018-12-30T09:06:05.040Z,987.57
2018-12-30T09:07:05.108Z,987.37
2018-12-30T09:08:05.308Z,987.51
2018-12-30T09:09:05.532Z,987.54
2018-12-30T09:10:04.625Z,987.42
2018-12-30T09:11:04.829Z,987.71
2018-12-30T09:12:05.082Z,987.57
2018-12-30T09:13:05.160Z,987.54
2018-12-30T09:14:05.115Z,987.45
2018-12-30T09:15:05.379Z,987.65
2018-12-30T09:16:05.479Z,987.45
2018-12-30T09:17:05.000Z,987.51
2018-12-30T09:18:04.597Z,987.56
2018-12-30T09:19:04.911Z,987.54
2018-12-30T09:20:04.912Z,987.51
2018-12-30T09:21:04.991Z,987.70
2018-12-30T09:22:04.581Z,987.62
2018-12-30T09:23:04.735Z,987.68
2018-12-30T09:24:04.865Z,987.67
2018-12-30T09:25:05.143Z,987.65
2018-12-30T09:26:05.349Z,987.76
2018-12-30T09:27:05.494Z,987.70
2018-12-30T09:28:04.579Z,987.67
2018-12-30T09:29:10.221Z,987.62
2018-12-30T09:30:04.664Z,987.56
2018-12-30T09:31:05.228Z,987.67
2018-12-30T09:32:04.515Z,987.70
2018-12-30T09:33:04.925Z,987.73
2018-12-30T09:34:05.389Z,987.62
2018-12-30T09:35:04.937Z,987.67
2018-12-30T09:36:05.414Z,987.67
2018-12-30T09:37:05.535Z,987.62
2018-12-30T09:38:04.616Z,987.67
2018-12-30T09:39:05.146Z,987.76
2018-12-30T09:40:05.546Z,987.81
2018-12-30T09:41:04.751Z,987.87
2018-12-30T09:42:05.294Z,987.73
2018-12-30T09:43:05.338Z,987.73
2018-12-30T09:44:04.579Z,987.76
2018-12-30T09:45:04.702Z,987.78
2018-12-30T09:46:04.770Z,987.67
2018-12-30T09:47:04.835Z,987.75
2018-12-30T09:48:05.116Z,987.75
2018-12-30T09:49:05.750Z,987.70
2018-12-30T09:50:10.912Z,988.00
2018-12-30T09:52:04.794Z,987.87
2018-12-30T09:53:05.209Z,987.67
2018-12-30T09:54:05.163Z,987.75
2018-12-30T09:55:10.313Z,987.86
2018-12-30T09:56:10.486Z,987.97
2018-12-30T09:57:05.105Z,988.00
2018-12-30T09:58:05.261Z,988.05
2018-12-30T09:59:04.765Z,987.97
2018-12-30T10:00:04.911Z,987.94
2018-12-30T10:01:05.156Z,987.86
2018-12-30T10:02:05.473Z,987.91
2018-12-30T10:03:05.440Z,988.02
2018-12-30T10:04:04.994Z,988.00
2018-12-30T10:05:04.954Z,987.81
2018-12-30T10:06:05.170Z,987.97
2018-12-30T10:07:05.227Z,987.86
2018-12-30T10:08:04.682Z,987.94
2018-12-30T10:09:04.990Z,987.97
2018-12-30T10:10:04.778Z,988.02
2018-12-30T10:11:05.723Z,987.86
2018-12-30T10:12:05.342Z,988.05
2018-12-30T10:13:04.832Z,988.00
2018-12-30T10:14:05.198Z,987.75
2018-12-30T10:15:10.349Z,987.83
2018-12-30T10:16:04.904Z,987.91
2018-12-30T10:17:04.980Z,987.91
2018-12-30T10:18:05.041Z,987.86
2018-12-30T10:19:05.224Z,988.02
2018-12-30T10:20:05.385Z,987.99
2018-12-30T10:21:05.305Z,987.99
2018-12-30T10:22:04.873Z,987.97
2018-12-30T10:23:04.809Z,988.11
2018-12-30T10:24:05.103Z,987.99
2018-12-30T10:25:05.218Z,987.97
2018-12-30T10:26:04.748Z,988.05
2018-12-30T10:27:04.911Z,988.05
2018-12-30T10:28:05.427Z,987.94
2018-12-30T10:29:04.799Z,988.08
2018-12-30T10:31:05.011Z,988.16
2018-12-30T10:32:05.186Z,988.13
2018-12-30T10:33:04.555Z,988.19
2018-12-30T10:34:04.699Z,988.05
2018-12-30T10:35:04.924Z,988.10
2018-12-30T10:36:05.057Z,988.13
2018-12-30T10:37:05.047Z,988.05
2018-12-30T10:38:05.261Z,988.05
2018-12-30T10:39:05.447Z,988.05
2018-12-30T10:40:04.612Z,988.19
2018-12-30T10:41:06.411Z,988.05
2018-12-30T10:42:05.135Z,988.02
2018-12-30T10:43:05.123Z,988.02
2018-12-30T10:44:04.545Z,987.99
2018-12-30T10:45:04.695Z,987.93
2018-12-30T10:46:05.451Z,987.99
2018-12-30T10:47:04.707Z,987.88
2018-12-30T10:48:04.715Z,987.96
2018-12-30T10:49:04.734Z,987.88
2018-12-30T10:50:05.877Z,988.10
2018-12-30T10:51:04.565Z,987.96
2018-12-30T10:52:04.727Z,988.21
2018-12-30T10:53:05.010Z,987.99
2018-12-30T10:54:05.394Z,988.04
2018-12-30T10:55:04.733Z,988.13
2018-12-30T10:56:05.382Z,987.99
2018-12-30T10:57:04.564Z,988.26
2018-12-30T10:58:05.537Z,988.10
2018-12-30T10:59:04.738Z,988.07
2018-12-30T11:00:04.836Z,988.02
2018-12-30T11:01:05.159Z,988.16
2018-12-30T11:02:04.685Z,988.10
2018-12-30T11:03:04.822Z,988.04
2018-12-30T11:04:05.147Z,988.10
2018-12-30T11:05:05.481Z,988.02
2018-12-30T11:06:04.786Z,987.93
2018-12-30T11:07:04.747Z,988.24
2018-12-30T11:08:04.766Z,988.18
2018-12-30T11:09:05.181Z,988.10
2018-12-30T11:10:04.655Z,988.02
2018-12-30T11:11:04.856Z,988.10
2018-12-30T11:12:04.873Z,988.10
2018-12-30T11:13:05.151Z,988.10
2018-12-30T11:14:05.273Z,988.07
2018-12-30T11:15:05.325Z,988.07
2018-12-30T11:16:04.617Z,988.10
2018-12-30T11:17:04.812Z,988.16
2018-12-30T11:18:04.832Z,987.99
2018-12-30T11:19:05.302Z,988.01
2018-12-30T11:20:04.982Z,988.10
2018-12-30T11:21:04.502Z,988.24
2018-12-30T11:22:04.828Z,988.13
2018-12-30T11:23:05.061Z,987.96
2018-12-30T11:24:09.134Z,988.07
2018-12-30T11:25:05.022Z,988.18
2018-12-30T11:26:05.060Z,988.04
2018-12-30T11:27:05.152Z,988.13
2018-12-30T11:28:04.689Z,988.07
2018-12-30T11:29:10.045Z,988.07
2018-12-30T11:30:05.462Z,988.07
2018-12-30T11:31:04.762Z,988.15
2018-12-30T11:32:05.201Z,988.10
2018-12-30T11:33:05.461Z,988.13
2018-12-30T11:34:05.495Z,988.01
2018-12-30T11:35:05.041Z,988.13
2018-12-30T11:36:05.273Z,988.24
2018-12-30T11:37:05.342Z,988.13
2018-12-30T11:38:05.389Z,988.07
2018-12-30T11:39:04.620Z,988.24
2018-12-30T11:40:04.661Z,988.13
2018-12-30T11:41:05.142Z,988.21
2018-12-30T11:42:05.373Z,988.15
2018-12-30T11:43:04.919Z,988.07
2018-12-30T11:44:05.251Z,988.01
2018-12-30T11:45:05.235Z,988.01
2018-12-30T11:46:04.691Z,988.04
2018-12-30T11:47:04.750Z,988.01
2018-12-30T11:48:05.287Z,987.96
2018-12-30T11:49:10.473Z,988.01
2018-12-30T11:50:05.001Z,988.10
2018-12-30T11:51:04.928Z,988.04
2018-12-30T11:52:04.848Z,987.96
2018-12-30T11:53:05.511Z,987.85
2018-12-30T11:54:04.514Z,988.04
2018-12-30T11:55:05.561Z,988.01
2018-12-30T11:56:04.961Z,988.12
2018-12-30T11:57:04.560Z,988.07
2018-12-30T11:58:05.266Z,988.12
2018-12-30T11:59:04.710Z,988.01
2018-12-30T12:00:05.068Z,988.12
2018-12-30T12:01:04.715Z,987.95
2018-12-30T12:02:05.003Z,988.04
2018-12-30T12:03:05.012Z,988.12
2018-12-30T12:04:05.209Z,988.12
2018-12-30T12:05:05.374Z,988.10
2018-12-30T12:06:05.071Z,988.01
2018-12-30T12:07:04.504Z,988.10
2018-12-30T12:08:04.749Z,988.15
2018-12-30T12:09:04.617Z,988.07
2018-12-30T12:10:04.707Z,988.07
2018-12-30T12:11:04.867Z,988.12
2018-12-30T12:12:04.930Z,988.07
2018-12-30T12:13:05.219Z,988.15
2018-12-30T12:14:04.627Z,988.24
2018-12-30T12:15:07.176Z,988.07
2018-12-30T12:16:04.833Z,988.18
2018-12-30T12:17:05.483Z,988.28
2018-12-30T12:18:04.543Z,988.09
2018-12-30T12:19:05.400Z,988.01
2018-12-30T12:20:04.758Z,988.12
2018-12-30T12:21:04.880Z,988.24
2018-12-30T12:22:05.399Z,988.07
2018-12-30T12:23:04.715Z,988.15
2018-12-30T12:24:05.061Z,988.09
2018-12-30T12:25:05.452Z,988.07
2018-12-30T12:26:04.952Z,988.12
2018-12-30T12:27:05.404Z,988.09
2018-12-30T12:28:04.587Z,988.01
2018-12-30T12:29:04.771Z,988.18
2018-12-30T12:30:04.889Z,988.18
2018-12-30T12:31:05.331Z,988.24
2018-12-30T12:32:05.449Z,988.26
2018-12-30T12:33:05.470Z,988.21